Time;durP1;ratioP1;P1;durP2;ratioP2;P2;SDS_P1;SDS_P2;PMS_P1;PMS_P2;Temp;Humidity;BMP_temperature;BMP_pressure;BME280_temperature;BME280_humidity;BME280_pressure;Samples;Min_cycle;Max_cycle;Signal;HPM_P1;HPM_P2
2023/05/09 00:02:39;;;;;;;43.13;12.23;;;4.10;99.90;;;;;;4441994;28;657777;-71
2023/05/09 00:05:26;;;;;;;37.83;11.50;;;4.10;99.90;;;;;;4421751;28;658180;-72
2023/05/09 00:08:14;;;;;;;35.37;10.37;;;4.10;99.90;;;;;;4434990;28;658507;-71
2023/05/09 00:11:01;;;;;;;69.97;15.67;;;4.00;99.90;;;;;;4414629;28;658872;-71
2023/05/09 00:13:49;;;;;;;28.38;10.32;;;4.00;99.90;;;;;;4442966;28;658091;-71
2023/05/09 00:16:38;;;;;;;27.60;10.13;;;4.00;99.90;;;;;;4414781;28;657702;-71
2023/05/09 00:19:25;;;;;;;20.53;9.00;;;3.90;99.90;;;;;;4421249;28;657355;-72
2023/05/09 00:22:12;;;;;;;21.33;9.13;;;3.90;99.90;;;;;;4449887;28;656548;-71
2023/05/09 00:25:00;;;;;;;23.90;10.73;;;3.80;99.90;;;;;;4445318;28;656760;-71
2023/05/09 00:27:47;;;;;;;18.63;9.50;;;3.80;99.90;;;;;;4441720;28;658795;-71
2023/05/09 00:30:35;;;;;;;74.37;18.43;;;3.80;99.90;;;;;;4443053;28;656769;-72
2023/05/09 00:33:25;;;;;;;32.80;11.50;;;3.80;99.90;;;;;;4438904;28;658861;-71
2023/05/09 00:36:12;;;;;;;19.30;9.80;;;3.80;99.90;;;;;;4420334;28;658860;-71
2023/05/09 00:39:00;;;;;;;31.23;12.07;;;3.70;99.90;;;;;;4443447;28;657452;-72
2023/05/09 00:41:47;;;;;;;29.17;10.70;;;3.70;99.90;;;;;;4442219;28;658040;-71
2023/05/09 00:44:34;;;;;;;31.17;11.60;;;3.70;99.90;;;;;;4441727;28;658321;-70
2023/05/09 00:47:23;;;;;;;21.80;10.03;;;3.70;99.90;;;;;;4421937;28;658607;-71
2023/05/09 00:50:12;;;;;;;45.45;14.90;;;3.70;99.90;;;;;;4422068;28;657985;-72
2023/05/09 00:52:59;;;;;;;35.73;12.70;;;3.70;99.90;;;;;;4441201;28;657575;-71
2023/05/09 00:55:47;;;;;;;42.73;15.17;;;3.70;99.90;;;;;;4421502;28;658135;-71
2023/05/09 00:58:34;;;;;;;21.83;9.97;;;3.60;99.90;;;;;;4441521;28;657465;-71
2023/05/09 01:01:21;;;;;;;21.10;10.50;;;3.70;99.90;;;;;;4424752;28;656408;-72
2023/05/09 01:04:08;;;;;;;18.50;10.10;;;3.70;99.90;;;;;;4437241;28;658802;-71
2023/05/09 01:07:01;;;;;;;16.00;8.70;;;3.70;99.90;;;;;;4419741;28;658310;-71
2023/05/09 01:09:53;;;;;;;23.33;10.40;;;3.60;99.90;;;;;;4415175;28;657548;-71
2023/05/09 01:12:43;;;;;;;22.80;10.50;;;3.60;99.90;;;;;;4397891;28;658711;-72
2023/05/09 01:15:32;;;;;;;21.27;11.07;;;3.60;99.90;;;;;;4417062;28;657517;-72
2023/05/09 01:18:24;;;;;;;20.13;10.33;;;3.60;99.90;;;;;;4437870;28;658391;-71
2023/05/09 01:21:13;;;;;;;20.93;9.80;;;3.60;99.90;;;;;;4422123;28;657986;-71
2023/05/09 01:24:34;;;;;;;21.23;9.53;;;3.60;99.90;;;;;;4420127;28;656641;-72
2023/05/09 01:27:22;;;;;;;15.87;9.13;;;3.60;99.90;;;;;;4387746;28;656781;-71
2023/05/09 01:30:11;;;;;;;21.50;9.60;;;3.60;99.90;;;;;;4438683;28;656720;-71
2023/05/09 01:33:00;;;;;;;20.80;9.20;;;3.60;99.90;;;;;;4421203;28;658115;-70
2023/05/09 01:35:51;;;;;;;17.03;8.80;;;3.60;99.90;;;;;;4418699;28;657181;-71
2023/05/09 01:38:38;;;;;;;19.87;9.43;;;3.60;99.90;;;;;;4422330;28;656963;-71
2023/05/09 01:41:25;;;;;;;21.90;10.30;;;3.60;99.90;;;;;;4420353;28;656546;-71
2023/05/09 01:44:13;;;;;;;22.37;10.10;;;3.60;99.90;;;;;;4440455;28;657636;-71
2023/05/09 01:47:02;;;;;;;32.00;12.93;;;3.50;99.90;;;;;;4425289;28;657833;-71
2023/05/09 01:49:49;;;;;;;25.30;11.43;;;3.60;99.90;;;;;;4445219;28;658169;-71
2023/05/09 01:52:36;;;;;;;27.70;10.90;;;3.60;99.90;;;;;;4419786;28;657944;-71
2023/05/09 01:55:26;;;;;;;15.60;9.87;;;3.60;99.90;;;;;;4443656;28;657633;-71
2023/05/09 01:58:13;;;;;;;19.73;9.67;;;3.70;99.90;;;;;;4416774;28;657693;-71
2023/05/09 02:01:00;;;;;;;19.13;9.93;;;3.60;99.90;;;;;;4419769;28;657143;-71
2023/05/09 02:03:51;;;;;;;18.97;9.47;;;3.60;99.90;;;;;;4437555;28;659103;-71
2023/05/09 02:06:38;;;;;;;18.47;10.30;;;3.60;99.90;;;;;;4419232;28;657061;-71
2023/05/09 02:09:25;;;;;;;20.27;10.53;;;3.50;99.90;;;;;;4418408;28;657629;-72
2023/05/09 02:12:13;;;;;;;19.47;10.83;;;3.50;99.90;;;;;;4443579;28;658806;-70
2023/05/09 02:15:00;;;;;;;20.53;11.00;;;3.60;99.90;;;;;;4424524;28;658007;-72
2023/05/09 02:17:47;;;;;;;22.07;11.47;;;3.50;99.90;;;;;;4436153;28;657452;-71
2023/05/09 02:20:36;;;;;;;25.37;12.20;;;3.50;99.90;;;;;;4441473;28;657952;-71
2023/05/09 02:23:23;;;;;;;19.97;10.93;;;3.50;99.90;;;;;;4412761;28;657761;-71
2023/05/09 02:26:10;;;;;;;24.07;11.47;;;3.50;99.90;;;;;;4419317;28;657863;-72
2023/05/09 02:28:57;;;;;;;22.17;11.10;;;3.50;99.90;;;;;;4436605;28;658297;-71
2023/05/09 02:31:45;;;;;;;26.77;12.47;;;3.50;99.90;;;;;;4441591;28;658136;-72
2023/05/09 02:34:32;;;;;;;23.57;11.57;;;3.50;99.90;;;;;;4436998;28;658724;-71
2023/05/09 02:37:22;;;;;;;25.83;11.07;;;3.50;99.90;;;;;;4438516;28;657639;-71
2023/05/09 02:40:09;;;;;;;25.23;11.27;;;3.50;99.90;;;;;;4443689;28;657669;-71
2023/05/09 02:42:57;;;;;;;18.97;9.90;;;3.50;99.90;;;;;;4422422;28;658167;-71
2023/05/09 02:45:44;;;;;;;20.80;9.83;;;3.40;99.90;;;;;;4434881;28;657232;-71
2023/05/09 02:48:31;;;;;;;25.57;10.70;;;3.40;99.90;;;;;;4426827;28;657070;-72
2023/05/09 02:51:18;;;;;;;20.20;10.70;;;3.40;99.90;;;;;;4437790;28;658786;-71
2023/05/09 02:54:07;;;;;;;22.43;10.53;;;3.30;99.90;;;;;;4420154;28;657103;-72
2023/05/09 02:56:54;;;;;;;20.77;10.30;;;3.30;99.90;;;;;;4438771;28;657964;-71
2023/05/09 02:59:42;;;;;;;21.90;11.17;;;3.30;99.90;;;;;;4414654;28;657305;-71
2023/05/09 03:02:29;;;;;;;23.37;11.13;;;3.30;99.90;;;;;;4444391;28;657402;-73
2023/05/09 03:05:17;;;;;;;26.50;12.57;;;3.40;99.90;;;;;;4279215;28;658420;-72
2023/05/09 03:08:04;;;;;;;23.58;12.25;;;3.30;99.90;;;;;;4294255;28;657503;-72
2023/05/09 03:10:53;;;;;;;24.87;12.60;;;3.30;99.90;;;;;;4394357;28;657739;-72
2023/05/09 03:13:40;;;;;;;25.25;13.00;;;3.40;99.90;;;;;;4421692;28;658212;-73
2023/05/09 03:16:27;;;;;;;29.20;13.53;;;3.40;99.90;;;;;;4436551;28;658710;-72
2023/05/09 03:19:15;;;;;;;27.97;13.97;;;3.40;99.90;;;;;;4434942;28;657760;-72
2023/05/09 03:22:02;;;;;;;28.50;13.23;;;3.50;99.90;;;;;;4441038;28;658268;-71
2023/05/09 03:24:50;;;;;;;30.00;13.90;;;3.40;99.90;;;;;;4433541;28;658572;-71
2023/05/09 03:27:39;;;;;;;28.10;13.53;;;3.40;99.90;;;;;;4449319;28;658148;-71
2023/05/09 03:30:26;;;;;;;30.17;12.67;;;3.40;99.90;;;;;;4419324;28;658463;-71
2023/05/09 03:33:13;;;;;;;33.90;13.53;;;3.40;99.90;;;;;;4443996;28;658565;-71
2023/05/09 03:36:00;;;;;;;42.53;14.20;;;3.40;99.90;;;;;;4425637;28;658008;-72
2023/05/09 03:38:48;;;;;;;38.37;13.77;;;3.40;99.90;;;;;;4437425;28;658279;-71
2023/05/09 03:41:35;;;;;;;32.90;13.70;;;3.40;99.90;;;;;;4432315;28;657781;-72
2023/05/09 03:44:24;;;;;;;30.60;13.13;;;3.40;99.90;;;;;;4438042;28;658903;-71
2023/05/09 03:47:11;;;;;;;31.75;12.88;;;3.40;99.90;;;;;;4424699;28;658355;-72
2023/05/09 03:49:59;;;;;;;33.07;12.27;;;3.40;99.90;;;;;;4445493;28;658079;-71
2023/05/09 03:52:46;;;;;;;27.27;12.87;;;3.40;99.90;;;;;;4425753;28;657696;-72
2023/05/09 03:55:33;;;;;;;28.83;12.53;;;3.50;99.90;;;;;;4438279;28;657393;-71
2023/05/09 03:58:20;;;;;;;28.55;13.18;;;3.50;99.90;;;;;;4423181;28;657847;-72
2023/05/09 04:01:09;;;;;;;32.77;14.33;;;3.60;99.90;;;;;;4441182;28;658476;-72
2023/05/09 04:03:57;;;;;;;29.00;13.77;;;3.70;99.90;;;;;;4422116;28;658319;-71
2023/05/09 04:06:44;;;;;;;23.37;12.57;;;3.80;99.90;;;;;;4443950;28;658194;-72
2023/05/09 04:09:31;;;;;;;31.13;14.17;;;3.90;99.90;;;;;;4423074;28;658048;-72
2023/05/09 04:12:18;;;;;;;22.17;10.93;;;4.10;99.90;;;;;;4436596;28;657694;-72
2023/05/09 04:15:07;;;;;;;28.07;12.77;;;4.20;99.90;;;;;;4424692;28;657779;-72
2023/05/09 04:17:56;;;;;;;20.30;10.30;;;4.40;99.90;;;;;;4442737;28;658180;-71
2023/05/09 04:20:43;;;;;;;16.93;10.07;;;4.50;99.90;;;;;;4422569;28;659147;-71
2023/05/09 04:23:30;;;;;;;21.63;11.53;;;4.60;99.90;;;;;;4419392;28;658180;-72
2023/05/09 04:26:17;;;;;;;24.07;10.90;;;4.80;99.90;;;;;;4438387;28;658234;-71
2023/05/09 04:29:05;;;;;;;17.87;10.27;;;4.90;99.90;;;;;;4439578;28;658266;-72
2023/05/09 04:31:52;;;;;;;14.43;8.80;;;5.10;99.90;;;;;;4440160;28;658704;-72
2023/05/09 04:34:42;;;;;;;23.53;9.17;;;5.20;99.90;;;;;;4442486;28;656710;-72
2023/05/09 04:37:30;;;;;;;16.83;8.90;;;5.40;99.90;;;;;;4448397;28;657023;-72
2023/05/09 04:40:17;;;;;;;19.17;8.87;;;5.50;99.90;;;;;;4422724;28;657025;-71
2023/05/09 04:43:05;;;;;;;23.40;8.47;;;5.70;99.90;;;;;;4440182;28;656367;-71
2023/05/09 04:45:52;;;;;;;18.03;8.67;;;5.90;99.90;;;;;;4423876;28;658091;-72
2023/05/09 04:48:39;;;;;;;17.73;8.53;;;6.10;99.90;;;;;;4436036;28;656560;-71
2023/05/09 04:51:28;;;;;;;24.87;9.27;;;6.30;99.90;;;;;;4422649;28;656563;-72
2023/05/09 04:54:15;;;;;;;37.03;10.00;;;6.30;99.90;;;;;;4424756;28;656419;-72
2023/05/09 04:57:05;;;;;;;79.57;17.63;;;6.50;99.90;;;;;;4446846;28;657919;-71
2023/05/09 04:59:52;;;;;;;54.67;13.97;;;6.60;99.90;;;;;;4422064;28;658205;-71
2023/05/09 05:02:40;;;;;;;61.80;16.80;;;6.70;99.90;;;;;;4439652;28;657300;-72
2023/05/09 05:05:27;;;;;;;68.90;18.73;;;6.80;99.90;;;;;;4439886;28;659195;-72
2023/05/09 05:08:16;;;;;;;55.10;17.00;;;7.00;99.90;;;;;;4445140;28;657237;-71
2023/05/09 05:11:03;;;;;;;21.27;8.60;;;7.00;99.90;;;;;;4417978;28;658921;-71
2023/05/09 05:13:50;;;;;;;28.83;10.80;;;7.10;1.00;;;;;;4419739;28;656670;-71
2023/05/09 05:16:38;;;;;;;17.87;9.00;;;7.20;1.00;;;;;;4442303;28;658185;-70
2023/05/09 05:19:25;;;;;;;15.53;7.67;;;7.30;1.00;;;;;;4439457;28;656477;-72
2023/05/09 05:22:12;;;;;;;15.70;7.40;;;7.30;1.00;;;;;;4442268;28;656443;-71
2023/05/09 05:25:02;;;;;;;18.93;7.80;;;7.40;99.90;;;;;;4443306;28;655249;-72
2023/05/09 05:27:49;;;;;;;14.87;7.70;;;7.40;99.90;;;;;;4447301;28;656860;-71
2023/05/09 05:30:36;;;;;;;27.17;9.43;;;7.50;99.90;;;;;;4419606;28;656352;-71
2023/05/09 05:33:24;;;;;;;14.60;7.80;;;7.50;99.90;;;;;;4444417;28;657097;-71
2023/05/09 05:36:11;;;;;;;24.23;9.57;;;7.60;99.90;;;;;;4420014;28;656613;-71
2023/05/09 05:38:58;;;;;;;27.67;11.53;;;7.60;99.90;;;;;;4443300;28;656905;-71
2023/05/09 05:41:47;;;;;;;15.00;7.43;;;7.60;99.90;;;;;;4421369;28;657798;-71
2023/05/09 05:44:34;;;;;;;48.70;15.87;;;7.70;99.90;;;;;;4442567;28;656126;-71
2023/05/09 05:47:21;;;;;;;16.13;7.07;;;7.80;99.90;;;;;;4420255;28;657980;-73
2023/05/09 05:50:10;;;;;;;17.50;7.40;;;7.90;99.90;;;;;;4442016;28;657363;-75
2023/05/09 05:52:57;;;;;;;14.90;7.83;;;7.90;99.90;;;;;;4423340;28;657400;-74
2023/05/09 05:55:45;;;;;;;13.73;7.47;;;8.00;99.90;;;;;;4435366;28;656541;-75
2023/05/09 05:58:34;;;;;;;18.00;9.40;;;8.10;99.90;;;;;;4420023;28;658216;-74
2023/05/09 06:01:21;;;;;;;14.10;7.10;;;8.30;99.90;;;;;;4421082;28;657203;-74
2023/05/09 06:04:08;;;;;;;11.00;6.47;;;8.30;99.90;;;;;;4439007;28;657404;-75
2023/05/09 06:06:55;;;;;;;16.33;6.80;;;8.40;99.90;;;;;;4422153;28;658240;-74
2023/05/09 06:09:43;;;;;;;44.00;13.27;;;8.40;99.90;;;;;;4438174;28;656787;-75
2023/05/09 06:12:30;;;;;;;21.83;8.70;;;8.50;99.90;;;;;;4427483;28;657592;-72
2023/05/09 06:15:19;;;;;;;14.50;7.20;;;8.50;99.90;;;;;;4438851;28;657700;-74
2023/05/09 06:18:07;;;;;;;28.40;12.77;;;8.60;99.90;;;;;;4418077;28;656525;-75
2023/05/09 06:20:54;;;;;;;19.93;6.97;;;8.60;99.90;;;;;;4437991;28;658545;-74
2023/05/09 06:23:42;;;;;;;12.33;6.47;;;8.60;99.90;;;;;;4419545;28;656391;-75
2023/05/09 06:26:29;;;;;;;12.33;7.37;;;8.80;99.90;;;;;;4444451;28;656613;-75
2023/05/09 06:29:16;;;;;;;16.83;7.53;;;8.80;99.90;;;;;;4413316;28;656657;-74
2023/05/09 06:32:05;;;;;;;12.10;6.67;;;8.90;99.90;;;;;;4433488;28;657677;-74
2023/05/09 06:34:52;;;;;;;16.57;8.57;;;9.00;99.90;;;;;;4412225;28;657533;-74
2023/05/09 06:37:39;;;;;;;14.50;7.20;;;9.10;99.90;;;;;;4436584;28;656148;-74
2023/05/09 06:40:26;;;;;;;13.43;6.40;;;9.20;99.90;;;;;;4423027;28;656678;-74
2023/05/09 06:43:14;;;;;;;19.73;8.53;;;9.30;99.90;;;;;;4442341;28;656968;-73
2023/05/09 06:46:01;;;;;;;21.30;9.63;;;9.40;99.90;;;;;;4419557;28;656723;-74
2023/05/09 06:48:49;;;;;;;32.90;8.37;;;9.40;99.90;;;;;;4430928;28;656381;-75
2023/05/09 06:51:37;;;;;;;15.87;7.20;;;9.60;99.90;;;;;;4422289;28;656585;-76
2023/05/09 06:54:24;;;;;;;27.23;8.50;;;9.80;99.90;;;;;;4439841;28;656710;-74
2023/05/09 06:57:11;;;;;;;33.50;12.17;;;9.80;99.90;;;;;;4423537;28;656283;-74
2023/05/09 06:59:58;;;;;;;17.03;5.77;;;9.90;99.90;;;;;;4441070;28;658361;-74
2023/05/09 07:02:45;;;;;;;14.10;7.00;;;10.00;99.90;;;;;;4421711;28;656468;-74
2023/05/09 07:05:34;;;;;;;19.13;7.20;;;9.90;99.90;;;;;;4431450;28;657626;-74
2023/05/09 07:08:21;;;;;;;11.43;6.40;;;10.00;99.90;;;;;;4418620;28;657320;-73
2023/05/09 07:11:09;;;;;;;16.17;6.67;;;9.90;99.90;;;;;;4434615;28;657732;-74
2023/05/09 07:13:56;;;;;;;15.63;7.13;;;10.00;99.90;;;;;;4420049;28;656752;-74
2023/05/09 07:16:45;;;;;;;18.58;8.02;;;10.10;99.90;;;;;;4439197;28;658492;-75
2023/05/09 07:19:32;;;;;;;19.63;7.03;;;10.30;99.90;;;;;;4413183;28;658186;-74
2023/05/09 07:22:21;;;;;;;14.10;6.43;;;10.40;99.90;;;;;;4438409;28;657416;-74
2023/05/09 07:25:09;;;;;;;16.57;6.13;;;10.40;99.90;;;;;;4414315;28;658425;-74
2023/05/09 07:27:56;;;;;;;15.17;6.40;;;10.50;99.90;;;;;;4417372;28;657389;-75
2023/05/09 07:30:43;;;;;;;12.30;7.00;;;10.50;99.90;;;;;;4444069;28;658276;-74
2023/05/09 07:33:30;;;;;;;12.37;6.90;;;10.60;99.90;;;;;;4422155;28;657595;-72
2023/05/09 07:36:17;;;;;;;14.17;6.10;;;10.90;99.90;;;;;;4441561;28;658153;-74
2023/05/09 07:39:06;;;;;;;13.83;6.53;;;11.10;99.90;;;;;;4438597;28;657877;-74
2023/05/09 07:41:54;;;;;;;16.93;6.47;;;11.20;99.90;;;;;;4411720;28;657514;-75
2023/05/09 07:44:41;;;;;;;14.03;6.70;;;11.30;99.90;;;;;;4418391;28;657705;-74
2023/05/09 07:47:28;;;;;;;19.43;6.33;;;11.30;99.90;;;;;;4440269;28;658838;-74
2023/05/09 07:50:15;;;;;;;22.83;8.90;;;11.50;99.90;;;;;;4418011;28;657570;-72
2023/05/09 07:53:03;;;;;;;14.37;6.00;;;11.50;99.90;;;;;;4439286;28;658851;-72
2023/05/09 07:55:51;;;;;;;15.70;6.60;;;11.50;99.90;;;;;;4428326;28;658610;-72
2023/05/09 07:58:39;;;;;;;34.67;10.17;;;11.50;99.90;;;;;;4440345;28;657795;-75
2023/05/09 08:01:26;;;;;;;21.67;8.20;;;11.60;99.90;;;;;;4416664;28;658616;-73
2023/05/09 08:04:13;;;;;;;14.53;5.97;;;11.90;99.90;;;;;;4444481;28;658651;-75
2023/05/09 08:07:02;;;;;;;20.77;6.70;;;11.90;99.90;;;;;;4421939;28;658128;-74
2023/05/09 08:09:50;;;;;;;15.30;7.17;;;11.90;99.90;;;;;;4435447;28;657717;-72
2023/05/09 08:12:39;;;;;;;20.70;8.98;;;12.10;99.90;;;;;;4447529;28;657702;-74
2023/05/09 08:15:26;;;;;;;18.67;7.40;;;12.10;99.90;;;;;;4421314;28;658170;-74
2023/05/09 08:18:13;;;;;;;15.17;6.70;;;12.40;99.90;;;;;;4441040;28;659207;-74
2023/05/09 08:21:00;;;;;;;14.82;6.20;;;12.50;99.90;;;;;;4422885;28;658308;-72
2023/05/09 08:23:48;;;;;;;13.67;6.00;;;12.70;99.90;;;;;;4438538;28;658442;-74
2023/05/09 08:26:35;;;;;;;15.97;6.47;;;12.80;99.90;;;;;;4433415;28;657849;-72
2023/05/09 08:29:24;;;;;;;15.43;6.67;;;12.90;99.90;;;;;;4445031;28;657673;-74
2023/05/09 08:32:11;;;;;;;12.47;6.73;;;12.80;99.90;;;;;;4423401;28;657568;-73
2023/05/09 08:34:58;;;;;;;12.53;6.03;;;12.90;99.90;;;;;;4444017;28;658598;-74
2023/05/09 08:37:46;;;;;;;19.87;6.87;;;12.90;99.90;;;;;;4423325;28;657416;-72
2023/05/09 08:40:35;;;;;;;14.20;6.53;;;12.80;99.90;;;;;;4441227;28;657531;-74
2023/05/09 08:43:23;;;;;;;17.57;6.37;;;13.10;99.90;;;;;;4418665;28;658196;-73
2023/05/09 08:46:12;;;;;;;8.23;5.60;;;13.20;99.90;;;;;;4428197;28;657896;-72
2023/05/09 08:48:59;;;;;;;18.00;6.27;;;13.40;99.90;;;;;;4438865;28;656474;-74
2023/05/09 08:51:46;;;;;;;17.87;6.60;;;13.60;99.90;;;;;;4422458;28;657410;-74
2023/05/09 08:54:33;;;;;;;15.00;5.77;;;14.00;99.90;;;;;;4441179;28;658881;-75
2023/05/09 08:57:21;;;;;;;7.90;5.10;;;14.20;99.90;;;;;;4422648;28;657664;-74
2023/05/09 09:00:10;;;;;;;13.13;5.87;;;14.40;99.90;;;;;;4435107;28;657813;-74
2023/05/09 09:02:59;;;;;;;10.43;5.80;;;14.70;99.90;;;;;;4408938;28;659409;-73
2023/05/09 09:05:46;;;;;;;11.30;5.30;;;14.80;99.90;;;;;;4324276;28;657483;-72
2023/05/09 09:08:33;;;;;;;12.60;5.20;;;14.90;98.60;;;;;;4259178;28;657904;-73
2023/05/09 09:11:21;;;;;;;13.77;4.70;;;15.10;97.50;;;;;;4335488;28;658132;-73
2023/05/09 09:14:12;;;;;;;10.87;4.87;;;15.30;93.00;;;;;;4402134;28;658871;-72
2023/05/09 09:16:59;;;;;;;8.87;4.20;;;15.00;91.70;;;;;;4419882;28;657344;-74
2023/05/09 09:19:49;;;;;;;11.60;4.53;;;15.10;87.40;;;;;;4418092;28;656444;-75
2023/05/09 09:22:36;;;;;;;9.30;4.60;;;14.90;86.10;;;;;;4419191;28;657926;-73
2023/05/09 09:25:24;;;;;;;6.53;3.97;;;15.20;90.90;;;;;;4440048;28;656782;-73
2023/05/09 09:28:11;;;;;;;10.87;4.60;;;15.40;88.10;;;;;;4424523;28;656421;-74
2023/05/09 09:30:58;;;;;;;14.93;5.27;;;15.60;87.80;;;;;;4445336;28;657257;-74
2023/05/09 09:33:45;;;;;;;8.97;4.03;;;15.90;89.80;;;;;;4421100;28;657437;-71
2023/05/09 09:36:35;;;;;;;10.93;4.07;;;16.10;78.30;;;;;;4439695;28;657421;-74
2023/05/09 09:39:22;;;;;;;12.03;4.93;;;15.80;74.10;;;;;;4404988;28;658274;-74
2023/05/09 09:42:13;;;;;;;9.83;5.13;;;15.70;76.20;;;;;;4425129;28;657865;-75
2023/05/09 09:45:02;;;;;;;14.37;6.53;;;15.90;77.70;;;;;;4392809;28;657700;-72
2023/05/09 09:47:49;;;;;;;11.40;5.03;;;16.40;78.60;;;;;;4426956;28;657354;-74
2023/05/09 09:50:38;;;;;;;9.50;4.53;;;16.40;75.90;;;;;;4399507;28;657778;-74
2023/05/09 09:53:29;;;;;;;10.67;4.73;;;16.30;76.10;;;;;;4406674;28;657005;-72
2023/05/09 09:56:16;;;;;;;16.97;5.30;;;16.60;72.80;;;;;;4405392;28;657400;-73
2023/05/09 09:59:11;;;;;;;10.43;5.07;;;16.20;69.00;;;;;;4424097;28;657605;-74
2023/05/09 10:01:59;;;;;;;10.00;3.67;;;15.90;71.40;;;;;;4396660;28;658395;-74
2023/05/09 10:04:46;;;;;;;13.27;4.93;;;16.50;69.40;;;;;;4396180;28;657578;-74
2023/05/09 10:07:34;;;;;;;10.63;3.70;;;17.00;70.40;;;;;;4423578;28;657475;-73
2023/05/09 10:10:22;;;;;;;5.80;3.53;;;17.20;69.50;;;;;;4398912;28;657395;-74
2023/05/09 10:13:10;;;;;;;9.10;3.67;;;17.30;65.80;;;;;;4422959;28;656602;-74
2023/05/09 10:15:58;;;;;;;9.17;3.90;;;17.10;63.40;;;;;;4397794;28;657767;-73
2023/05/09 10:18:45;;;;;;;12.37;4.10;;;17.20;66.60;;;;;;4412119;28;659264;-73
2023/05/09 10:21:33;;;;;;;5.10;3.17;;;17.10;64.60;;;;;;4421037;28;657771;-74
2023/05/09 10:24:25;;;;;;;13.80;3.53;;;17.00;67.40;;;;;;4406795;28;657181;-74
2023/05/09 10:27:13;;;;;;;6.43;4.10;;;16.90;64.70;;;;;;4403040;28;659099;-74
2023/05/09 10:30:04;;;;;;;9.73;3.07;;;16.80;65.30;;;;;;4402024;28;657161;-73
2023/05/09 10:32:53;;;;;;;7.73;3.30;;;17.20;64.40;;;;;;4407133;28;657766;-73
2023/05/09 10:35:47;;;;;;;8.67;3.70;;;17.40;58.50;;;;;;4412056;28;657626;-73
2023/05/09 10:38:34;;;;;;;10.13;3.70;;;17.50;64.80;;;;;;4394782;28;656210;-74
2023/05/09 10:41:22;;;;;;;8.65;3.25;;;17.20;60.20;;;;;;4398670;28;657334;-74
2023/05/09 10:44:11;;;;;;;6.10;3.40;;;16.80;63.00;;;;;;4424687;28;656155;-74
2023/05/09 10:46:58;;;;;;;8.23;3.50;;;17.20;60.40;;;;;;4398981;28;656450;-74
2023/05/09 10:49:45;;;;;;;4.80;3.00;;;17.40;57.40;;;;;;4408713;28;657096;-72
2023/05/09 10:52:33;;;;;;;5.47;3.60;;;17.50;55.30;;;;;;4434383;28;657224;-75
2023/05/09 10:55:20;;;;;;;10.23;3.83;;;17.50;56.10;;;;;;4403501;28;656723;-72
2023/05/09 10:58:32;;;;;;;12.00;4.83;;;17.90;59.50;;;;;;4428684;28;658170;-73
2023/05/09 11:01:33;;;;;;;6.97;3.43;;;18.20;54.90;;;;;;4390533;28;657953;-73
2023/05/09 11:04:20;;;;;;;10.17;2.90;;;18.70;55.10;;;;;;4374750;28;657033;-71
2023/05/09 11:07:22;;;;;;;6.70;3.00;;;18.90;55.10;;;;;;4422161;28;659036;-74
2023/05/09 11:10:09;;;;;;;7.90;3.70;;;18.80;53.70;;;;;;4396327;28;656822;-74
2023/05/09 11:12:57;;;;;;;6.73;3.37;;;18.40;50.90;;;;;;4404057;28;656661;-74
2023/05/09 11:16:06;;;;;;;5.27;2.67;;;18.10;49.90;;;;;;4420838;28;657156;-72
2023/05/09 11:18:55;;;;;;;5.13;3.03;;;18.10;51.10;;;;;;4399237;28;657125;-74
2023/05/09 11:22:01;;;;;;;17.93;7.43;;;18.20;51.00;;;;;;4391385;28;657564;-75
2023/05/09 11:24:49;;;;;;;11.70;4.63;;;18.20;52.40;;;;;;4391886;28;657800;-74
2023/05/09 11:27:41;;;;;;;5.63;2.50;;;18.20;53.70;;;;;;4402335;28;657454;-73
2023/05/09 11:30:40;;;;;;;7.30;2.40;;;18.20;49.10;;;;;;4398616;28;657089;-74
2023/05/09 11:33:29;;;;;;;5.53;3.30;;;17.50;49.80;;;;;;4378057;28;657115;-74
2023/05/09 11:36:19;;;;;;;5.33;3.13;;;18.30;51.40;;;;;;4398847;28;656733;-74
2023/05/09 11:39:07;;;;;;;5.37;2.60;;;18.60;49.30;;;;;;4404764;28;657195;-74
2023/05/09 11:41:54;;;;;;;3.73;2.50;;;18.60;49.30;;;;;;4411131;28;656492;-74
2023/05/09 11:44:41;;;;;;;26.40;7.27;;;19.10;51.50;;;;;;4405430;28;656731;-73
2023/05/09 11:47:29;;;;;;;11.43;4.07;;;19.40;48.80;;;;;;4426625;28;658713;-75
2023/05/09 11:50:18;;;;;;;10.40;3.53;;;19.60;49.30;;;;;;4412693;28;657659;-74
2023/05/09 11:53:07;;;;;;;10.17;2.97;;;20.30;50.30;;;;;;4409396;28;658055;-73
2023/05/09 11:55:54;;;;;;;6.70;3.33;;;19.90;48.40;;;;;;4423761;28;657297;-74
2023/05/09 11:58:42;;;;;;;5.07;2.80;;;19.70;46.90;;;;;;4401937;28;660780;-74
2023/05/09 12:01:30;;;;;;;27.67;7.93;;;19.60;44.80;;;;;;4417828;28;657037;-72
2023/05/09 12:04:17;;;;;;;25.40;7.57;;;19.90;47.40;;;;;;4422297;28;658303;-74
2023/05/09 12:07:05;;;;;;;4.33;2.40;;;20.20;44.60;;;;;;4425134;28;658616;-73
2023/05/09 12:09:54;;;;;;;14.77;4.47;;;20.20;46.60;;;;;;4426055;28;656725;-73
2023/05/09 12:12:44;;;;;;;6.33;2.97;;;20.60;43.50;;;;;;4405341;28;658000;-74
2023/05/09 12:15:36;;;;;;;10.93;3.80;;;19.90;42.90;;;;;;4407665;28;657150;-75
2023/05/09 12:18:23;;;;;;;17.17;5.07;;;19.20;44.60;;;;;;4403432;28;658715;-75
2023/05/09 12:21:11;;;;;;;9.77;2.50;;;19.80;48.70;;;;;;4405355;28;658280;-73
2023/05/09 12:23:58;;;;;;;3.60;2.10;;;20.40;48.50;;;;;;4428220;28;657547;-72
2023/05/09 12:26:47;;;;;;;11.87;3.93;;;20.30;46.10;;;;;;4403388;28;656743;-74
2023/05/09 12:29:34;;;;;;;5.47;2.30;;;20.30;44.90;;;;;;4422113;28;657351;-74
2023/05/09 12:32:21;;;;;;;4.23;2.13;;;19.40;43.00;;;;;;4402739;28;656653;-74
2023/05/09 12:35:09;;;;;;;5.83;2.20;;;18.90;45.80;;;;;;4426794;28;655872;-73
2023/05/09 12:37:57;;;;;;;6.17;2.20;;;19.20;48.10;;;;;;4422259;28;656513;-73
2023/05/09 12:40:48;;;;;;;5.37;2.90;;;19.90;42.50;;;;;;4432376;28;656876;-73
2023/05/09 12:43:38;;;;;;;5.70;2.40;;;20.00;44.50;;;;;;4420446;28;657423;-75
2023/05/09 12:46:25;;;;;;;3.27;2.20;;;19.50;43.00;;;;;;4423702;28;656571;-73
2023/05/09 12:49:20;;;;;;;3.77;2.20;;;19.40;43.30;;;;;;4443945;28;656687;-75
2023/05/09 12:52:16;;;;;;;4.23;2.30;;;20.00;46.60;;;;;;4419147;28;656821;-74
2023/05/09 12:55:06;;;;;;;12.77;4.23;;;20.00;44.30;;;;;;4418052;28;657021;-73
2023/05/09 12:58:00;;;;;;;12.60;4.23;;;19.60;45.30;;;;;;4413408;28;657970;-74
2023/05/09 13:00:48;;;;;;;8.57;3.40;;;20.30;44.30;;;;;;4392300;28;657858;-74
2023/05/09 13:03:37;;;;;;;9.67;3.60;;;20.70;45.90;;;;;;4423426;28;656708;-73
2023/05/09 13:06:24;;;;;;;9.10;3.53;;;21.20;45.00;;;;;;4440090;28;657166;-74
2023/05/09 13:09:11;;;;;;;7.57;2.40;;;21.20;40.30;;;;;;4424371;28;656855;-73
2023/05/09 13:11:59;;;;;;;7.50;3.37;;;21.30;41.30;;;;;;4442180;28;657509;-74
2023/05/09 13:14:46;;;;;;;3.93;2.30;;;21.40;42.80;;;;;;4416664;28;657262;-73
2023/05/09 13:17:34;;;;;;;4.13;2.40;;;20.30;40.00;;;;;;4439868;28;657988;-74
2023/05/09 13:20:22;;;;;;;13.27;3.23;;;19.80;40.60;;;;;;4420677;28;656260;-74
2023/05/09 13:23:09;;;;;;;9.20;3.33;;;19.20;42.50;;;;;;4427192;28;658127;-74
2023/05/09 13:25:56;;;;;;;6.53;3.20;;;18.80;43.70;;;;;;4421643;28;656519;-73
2023/05/09 13:28:43;;;;;;;7.20;4.13;;;19.30;45.00;;;;;;4437845;28;657855;-74
2023/05/09 13:31:30;;;;;;;6.30;2.90;;;19.80;43.20;;;;;;4425141;28;657110;-72
2023/05/09 13:34:19;;;;;;;2.63;2.13;;;19.10;43.60;;;;;;4442031;28;657412;-73
2023/05/09 13:37:06;;;;;;;7.37;3.83;;;18.50;43.60;;;;;;4423189;28;656511;-74
2023/05/09 13:39:54;;;;;;;4.50;2.37;;;18.30;43.90;;;;;;4441346;28;657187;-74
2023/05/09 13:42:41;;;;;;;10.20;4.77;;;18.20;44.30;;;;;;4418829;28;656470;-74
2023/05/09 13:45:28;;;;;;;5.10;2.33;;;18.80;46.20;;;;;;4440201;28;658016;-73
2023/05/09 13:48:15;;;;;;;9.00;4.00;;;19.40;42.40;;;;;;4420269;28;656541;-73
2023/05/09 13:51:06;;;;;;;6.83;3.20;;;19.50;44.40;;;;;;4443396;28;657867;-73
2023/05/09 13:53:53;;;;;;;6.43;2.87;;;19.80;43.20;;;;;;4417315;28;657792;-73
2023/05/09 13:56:41;;;;;;;8.07;2.73;;;20.50;42.50;;;;;;4422640;28;656539;-73
2023/05/09 13:59:28;;;;;;;5.83;2.20;;;20.50;39.90;;;;;;4442642;28;657659;-73
2023/05/09 14:02:16;;;;;;;9.00;2.70;;;20.10;40.20;;;;;;4422603;28;656732;-75
2023/05/09 14:05:03;;;;;;;9.00;3.43;;;19.40;40.30;;;;;;4447090;28;656605;-74
2023/05/09 14:07:52;;;;;;;6.80;2.37;;;19.20;41.70;;;;;;4420230;28;656420;-74
2023/05/09 14:10:39;;;;;;;4.67;2.10;;;19.00;42.20;;;;;;4440237;28;657083;-74
2023/05/09 14:13:26;;;;;;;9.43;3.93;;;19.20;42.80;;;;;;4422536;28;656707;-75
2023/05/09 14:16:14;;;;;;;5.53;1.90;;;19.90;42.90;;;;;;4438648;28;657424;-75
2023/05/09 14:19:01;;;;;;;8.73;1.80;;;19.90;42.80;;;;;;4419917;28;656261;-76